createdAt,value
2023-05-09T00:02:02.265Z,13.15
2023-05-09T00:04:29.232Z,12.52
2023-05-09T00:06:55.884Z,11.98
2023-05-09T00:09:22.235Z,11.80
2023-05-09T00:11:48.710Z,11.38
2023-05-09T00:14:18.357Z,12.73
2023-05-09T00:16:45.501Z,12.48
2023-05-09T00:19:13.120Z,10.63
2023-05-09T00:21:39.830Z,12.52
2023-05-09T00:24:06.541Z,13.20
2023-05-09T00:26:33.725Z,12.70
2023-05-09T00:29:00.309Z,11.80
2023-05-09T00:31:26.730Z,11.93
2023-05-09T00:33:54.181Z,12.48
2023-05-09T00:36:21.338Z,12.40
2023-05-09T00:38:47.744Z,10.65
2023-05-09T00:41:14.140Z,10.73
2023-05-09T00:43:40.554Z,12.20
2023-05-09T00:46:07.204Z,12.65
2023-05-09T00:48:33.683Z,12.15
2023-05-09T00:51:00.062Z,11.85
2023-05-09T00:53:26.690Z,12.45
2023-05-09T00:55:55.815Z,11.65
2023-05-09T00:58:22.253Z,12.82
2023-05-09T01:00:48.675Z,11.90
2023-05-09T01:03:15.735Z,11.43
2023-05-09T01:06:10.101Z,12.30
2023-05-09T01:08:47.323Z,11.45
2023-05-09T01:11:25.641Z,12.00
2023-05-09T01:14:11.436Z,12.75
2023-05-09T01:16:43.129Z,11.30
2023-05-09T01:19:09.519Z,13.65
2023-05-09T01:21:40.251Z,12.77
2023-05-09T01:24:21.814Z,12.68
2023-05-09T01:27:28.948Z,13.40
2023-05-09T01:29:57.947Z,12.55
2023-05-09T01:32:27.929Z,11.30
2023-05-09T01:35:01.409Z,11.07
2023-05-09T01:37:33.721Z,12.00
2023-05-09T01:40:08.458Z,13.02
2023-05-09T01:45:15.669Z,13.30
2023-05-09T01:47:43.978Z,11.98
2023-05-09T01:50:12.657Z,12.57
2023-05-09T01:52:42.472Z,11.60
2023-05-09T01:55:10.747Z,13.38
2023-05-09T01:57:38.982Z,12.00
2023-05-09T02:00:08.053Z,13.02
2023-05-09T02:02:35.798Z,11.48
2023-05-09T02:05:02.568Z,12.13
2023-05-09T02:07:29.875Z,11.35
2023-05-09T02:09:58.405Z,12.52
2023-05-09T02:12:25.085Z,13.75
2023-05-09T02:14:51.626Z,14.10
2023-05-09T02:17:19.243Z,13.18
2023-05-09T02:19:45.919Z,11.70
2023-05-09T02:22:13.273Z,13.10
2023-05-09T02:24:40.684Z,13.07
2023-05-09T02:27:07.785Z,13.40
2023-05-09T02:29:40.370Z,13.35
2023-05-09T02:32:16.370Z,11.60
2023-05-09T02:34:43.778Z,12.02
2023-05-09T02:37:10.846Z,12.20
2023-05-09T02:39:37.339Z,11.70
2023-05-09T02:42:12.094Z,13.63
2023-05-09T02:47:08.024Z,11.88
2023-05-09T02:49:34.601Z,12.65
2023-05-09T02:52:01.454Z,10.70
2023-05-09T02:54:27.985Z,13.27
2023-05-09T02:56:54.430Z,11.10
2023-05-09T02:59:21.132Z,12.73
2023-05-09T03:01:47.557Z,11.82
2023-05-09T03:04:14.000Z,10.80
2023-05-09T03:06:40.515Z,11.43
2023-05-09T03:09:07.105Z,11.45
2023-05-09T03:11:33.769Z,10.32
2023-05-09T03:14:00.229Z,13.70
2023-05-09T03:16:26.764Z,14.23
2023-05-09T03:18:53.289Z,11.50
2023-05-09T03:21:19.703Z,13.32
2023-05-09T03:23:46.290Z,13.88
2023-05-09T03:26:13.159Z,13.57
2023-05-09T03:28:40.888Z,11.63
2023-05-09T03:31:07.434Z,13.68
2023-05-09T03:33:33.823Z,13.30
2023-05-09T03:36:00.389Z,13.55
2023-05-09T03:38:26.816Z,14.15
2023-05-09T03:40:53.991Z,13.45
2023-05-09T03:43:20.420Z,12.40
2023-05-09T03:45:46.842Z,10.52
2023-05-09T03:48:13.486Z,13.65
2023-05-09T03:50:39.944Z,13.05
2023-05-09T03:53:06.470Z,13.40
2023-05-09T03:55:32.876Z,13.43
2023-05-09T03:57:59.325Z,12.50
2023-05-09T04:00:28.880Z,12.02
2023-05-09T04:02:55.652Z,11.90
2023-05-09T04:05:22.049Z,12.63
2023-05-09T04:07:48.492Z,12.00
2023-05-09T04:10:15.405Z,12.20
2023-05-09T04:12:41.851Z,13.65
2023-05-09T04:15:09.017Z,12.02
2023-05-09T04:17:35.517Z,12.52
2023-05-09T04:20:03.311Z,11.75
2023-05-09T04:22:30.079Z,11.98
2023-05-09T04:24:57.195Z,12.30
2023-05-09T04:27:23.773Z,12.13
2023-05-09T04:29:50.264Z,11.07
2023-05-09T04:32:16.669Z,10.38
2023-05-09T04:34:43.293Z,11.30
2023-05-09T04:37:09.676Z,11.30
2023-05-09T04:39:36.097Z,11.18
2023-05-09T04:42:02.635Z,12.02
2023-05-09T04:44:29.156Z,11.68
2023-05-09T04:46:55.656Z,10.63
2023-05-09T04:49:22.130Z,12.00
2023-05-09T04:51:48.502Z,11.73
2023-05-09T04:54:15.119Z,12.45
2023-05-09T04:56:41.577Z,11.77
2023-05-09T04:59:08.023Z,11.15
2023-05-09T05:01:34.573Z,11.40
2023-05-09T05:04:01.002Z,10.57
2023-05-09T05:06:27.670Z,10.85
2023-05-09T05:08:54.032Z,10.90
2023-05-09T05:11:21.498Z,10.10
2023-05-09T05:13:47.942Z,9.85
2023-05-09T05:16:14.393Z,9.30
2023-05-09T05:18:40.931Z,10.07
2023-05-09T05:21:07.324Z,8.55
2023-05-09T05:23:33.699Z,9.52
2023-05-09T05:26:00.209Z,9.48
2023-05-09T05:28:26.650Z,9.50
2023-05-09T05:30:53.069Z,9.68
2023-05-09T05:33:19.429Z,8.73
2023-05-09T05:35:45.974Z,9.05
2023-05-09T05:38:12.404Z,9.13
2023-05-09T05:40:38.807Z,8.88
2023-05-09T05:43:05.316Z,9.15
2023-05-09T05:45:31.931Z,10.07
2023-05-09T05:47:58.658Z,8.95
2023-05-09T05:50:25.060Z,8.95
2023-05-09T05:52:51.519Z,8.35
2023-05-09T05:55:18.106Z,8.52
2023-05-09T05:57:44.597Z,8.23
2023-05-09T06:00:11.847Z,7.88
2023-05-09T06:02:40.837Z,8.13
2023-05-09T06:05:08.455Z,8.55
2023-05-09T06:07:34.941Z,8.35
2023-05-09T06:10:01.342Z,7.25
2023-05-09T06:12:28.131Z,7.55
2023-05-09T06:14:54.663Z,7.85
2023-05-09T06:17:21.253Z,8.02
2023-05-09T06:19:47.678Z,8.10
2023-05-09T06:22:14.041Z,8.20
2023-05-09T06:24:40.592Z,7.65
2023-05-09T06:27:07.045Z,8.10
2023-05-09T06:29:33.518Z,7.15
2023-05-09T06:32:00.331Z,8.50
2023-05-09T06:34:26.717Z,7.78
2023-05-09T06:36:53.212Z,8.35
2023-05-09T06:39:19.964Z,7.93
2023-05-09T06:41:46.734Z,7.85
2023-05-09T06:44:13.671Z,8.15
2023-05-09T06:46:40.314Z,8.18
2023-05-09T06:49:07.230Z,7.95
2023-05-09T06:51:33.700Z,8.05
2023-05-09T06:54:00.218Z,7.97
2023-05-09T06:56:26.961Z,8.23
2023-05-09T06:58:53.615Z,8.77
2023-05-09T07:01:20.092Z,8.90
2023-05-09T07:03:47.574Z,7.80
2023-05-09T07:06:14.298Z,8.23
2023-05-09T07:08:40.747Z,8.27
2023-05-09T07:11:07.254Z,8.35
2023-05-09T07:13:33.627Z,8.50
2023-05-09T07:16:00.052Z,8.57
2023-05-09T07:18:26.479Z,9.05
2023-05-09T07:20:52.933Z,8.70
2023-05-09T07:23:19.380Z,8.77
2023-05-09T07:25:45.791Z,8.07
2023-05-09T07:28:12.756Z,8.23
2023-05-09T07:30:39.294Z,8.68
2023-05-09T07:33:06.725Z,8.52
2023-05-09T07:35:33.365Z,8.73
2023-05-09T07:37:59.797Z,7.97
2023-05-09T07:40:26.439Z,8.55
2023-05-09T07:42:55.016Z,8.32
2023-05-09T07:45:23.722Z,8.05
2023-05-09T07:47:50.615Z,8.55
2023-05-09T07:50:17.451Z,8.35
2023-05-09T07:52:44.431Z,8.05
2023-05-09T07:55:12.384Z,8.73
2023-05-09T07:57:40.016Z,8.80
2023-05-09T08:00:08.836Z,8.52
2023-05-09T08:02:35.571Z,8.95
2023-05-09T08:05:02.072Z,8.32
2023-05-09T08:07:28.521Z,8.30
2023-05-09T08:09:56.014Z,8.15
2023-05-09T08:12:22.456Z,8.18
2023-05-09T08:14:49.075Z,7.65
2023-05-09T08:17:16.234Z,7.72
2023-05-09T08:19:42.849Z,7.97
2023-05-09T08:22:09.306Z,7.38
2023-05-09T08:24:35.697Z,7.70
2023-05-09T08:27:02.715Z,7.63
2023-05-09T08:29:29.851Z,7.97
2023-05-09T08:31:56.372Z,8.07
2023-05-09T08:34:22.881Z,7.63
2023-05-09T08:36:49.400Z,7.57
2023-05-09T08:39:15.850Z,7.35
2023-05-09T08:41:42.995Z,7.13
2023-05-09T08:44:10.242Z,6.85
2023-05-09T08:46:39.699Z,7.22
2023-05-09T08:49:09.438Z,7.07
2023-05-09T08:51:36.533Z,6.15
2023-05-09T08:54:03.480Z,6.20
2023-05-09T08:56:31.396Z,6.47
2023-05-09T08:58:58.928Z,6.07
2023-05-09T09:01:26.865Z,5.80
2023-05-09T09:03:53.838Z,4.80
2023-05-09T09:06:22.449Z,5.60
2023-05-09T09:08:49.940Z,5.00
2023-05-09T09:11:17.611Z,5.75
2023-05-09T09:13:45.950Z,4.95
2023-05-09T09:16:20.313Z,5.47
2023-05-09T09:18:47.528Z,5.38
2023-05-09T09:21:17.117Z,5.47
2023-05-09T09:23:47.372Z,5.25
2023-05-09T09:26:14.697Z,4.82
2023-05-09T09:28:42.089Z,4.78
2023-05-09T09:31:30.937Z,4.72
2023-05-09T09:34:01.958Z,4.72
2023-05-09T09:36:29.790Z,4.45
2023-05-09T09:39:00.719Z,4.72
2023-05-09T09:41:35.474Z,4.00
2023-05-09T09:44:11.786Z,4.63
2023-05-09T09:46:52.479Z,4.45
2023-05-09T09:49:23.893Z,4.32
2023-05-09T09:51:52.182Z,4.22
2023-05-09T09:54:22.545Z,4.43
2023-05-09T09:56:54.840Z,4.50
2023-05-09T09:59:24.850Z,4.35
2023-05-09T10:02:07.135Z,4.72
2023-05-09T10:04:37.528Z,3.83
2023-05-09T10:07:06.250Z,4.35
2023-05-09T10:09:34.763Z,3.85
2023-05-09T10:12:06.371Z,4.10
2023-05-09T10:14:35.689Z,4.32
2023-05-09T10:17:04.949Z,3.90
2023-05-09T10:19:32.588Z,4.20
2023-05-09T10:22:04.308Z,4.40
2023-05-09T10:24:33.945Z,4.40
2023-05-09T10:27:06.873Z,4.20
2023-05-09T10:29:40.424Z,4.03
2023-05-09T10:32:32.782Z,4.63
2023-05-09T10:35:04.907Z,4.63
2023-05-09T10:37:32.854Z,4.13
2023-05-09T10:40:02.800Z,3.92
2023-05-09T10:42:30.124Z,4.15
2023-05-09T10:44:58.048Z,4.00
2023-05-09T10:47:32.043Z,4.03
2023-05-09T10:49:58.789Z,3.83
2023-05-09T10:52:25.435Z,4.28
2023-05-09T10:55:01.040Z,4.15
2023-05-09T10:57:31.982Z,4.22
2023-05-09T11:00:00.263Z,3.90
2023-05-09T11:02:30.883Z,4.53
2023-05-09T11:05:14.572Z,3.75
2023-05-09T11:07:41.274Z,3.97
2023-05-09T11:10:25.871Z,4.00
2023-05-09T11:13:00.042Z,4.20
2023-05-09T11:15:29.792Z,4.60
2023-05-09T11:18:07.566Z,4.40
2023-05-09T11:20:38.589Z,4.13
2023-05-09T11:23:06.075Z,3.95
2023-05-09T11:25:32.979Z,3.92
2023-05-09T11:28:02.018Z,4.20
2023-05-09T11:30:49.257Z,3.38
2023-05-09T11:33:28.463Z,3.65
2023-05-09T11:36:19.429Z,3.88
2023-05-09T11:38:47.410Z,4.03
2023-05-09T11:41:13.858Z,4.07
2023-05-09T11:43:42.651Z,4.07
2023-05-09T11:48:40.092Z,3.45
2023-05-09T11:51:07.428Z,3.42
2023-05-09T11:53:34.000Z,3.97
2023-05-09T11:56:04.699Z,4.10
2023-05-09T11:58:31.316Z,4.28
2023-05-09T12:00:58.601Z,4.82
2023-05-09T12:03:25.626Z,3.80
2023-05-09T12:05:54.352Z,4.28
2023-05-09T12:08:22.666Z,4.57
2023-05-09T12:10:49.049Z,4.20
2023-05-09T12:13:15.654Z,4.10
2023-05-09T12:15:45.034Z,3.47
2023-05-09T12:18:11.606Z,3.90
2023-05-09T12:20:47.446Z,3.80
2023-05-09T12:23:15.029Z,3.42
2023-05-09T12:25:55.193Z,3.85
2023-05-09T12:28:25.773Z,4.15
2023-05-09T12:30:52.991Z,3.72
2023-05-09T12:33:20.239Z,3.42
2023-05-09T12:35:48.302Z,4.15
2023-05-09T12:38:24.550Z,4.32
2023-05-09T12:41:04.329Z,4.10
2023-05-09T12:43:35.726Z,4.60
2023-05-09T12:46:03.231Z,4.35
2023-05-09T12:48:34.243Z,4.28
2023-05-09T12:51:07.473Z,3.90
2023-05-09T12:53:38.662Z,3.92
2023-05-09T12:56:12.577Z,4.30
2023-05-09T12:58:39.476Z,4.13
2023-05-09T13:01:06.693Z,3.80
2023-05-09T13:03:37.990Z,3.72
2023-05-09T13:06:06.546Z,3.53
2023-05-09T13:08:33.153Z,3.58
2023-05-09T13:11:11.951Z,3.63
2023-05-09T13:13:42.548Z,3.28
2023-05-09T13:16:10.737Z,4.00
2023-05-09T13:18:37.963Z,3.80
2023-05-09T13:21:04.357Z,3.75
2023-05-09T13:23:30.855Z,3.75
2023-05-09T13:25:57.252Z,3.15
2023-05-09T13:28:23.692Z,3.90
2023-05-09T13:30:50.136Z,3.63
2023-05-09T13:33:25.374Z,3.60
2023-05-09T13:35:53.130Z,3.53
2023-05-09T13:38:19.610Z,3.45
2023-05-09T13:40:46.347Z,3.55
2023-05-09T13:43:12.795Z,3.78
2023-05-09T13:45:41.965Z,2.97
2023-05-09T13:48:08.453Z,3.00
2023-05-09T13:50:34.866Z,3.00
2023-05-09T13:53:01.335Z,3.40
2023-05-09T13:55:27.868Z,2.83
2023-05-09T13:57:54.837Z,2.90
2023-05-09T14:00:22.088Z,2.90
2023-05-09T14:02:48.630Z,2.83
2023-05-09T14:05:15.218Z,3.10
2023-05-09T14:07:42.764Z,3.10
2023-05-09T14:10:11.974Z,3.10
2023-05-09T14:12:40.291Z,3.20
2023-05-09T14:15:07.801Z,3.53
2023-05-09T14:17:34.336Z,2.88
2023-05-09T14:20:00.897Z,2.90
2023-05-09T14:22:28.141Z,3.20
2023-05-09T14:24:56.422Z,2.80
2023-05-09T14:27:23.121Z,2.58
2023-05-09T14:29:49.505Z,3.47
2023-05-09T14:32:16.140Z,2.85
2023-05-09T14:34:42.520Z,2.70
2023-05-09T14:37:13.642Z,2.15
2023-05-09T14:39:45.163Z,2.80
2023-05-09T14:42:14.059Z,2.42
2023-05-09T14:47:09.008Z,2.40
2023-05-09T14:49:36.882Z,2.60
2023-05-09T14:52:03.509Z,2.25
2023-05-09T14:54:30.011Z,2.47
2023-05-09T14:56:57.172Z,2.30
2023-05-09T14:59:23.569Z,2.63
2023-05-09T15:01:51.720Z,2.33
2023-05-09T15:04:18.255Z,2.13
2023-05-09T15:06:45.372Z,2.38
2023-05-09T15:09:12.828Z,2.50
2023-05-09T15:11:47.806Z,2.35
2023-05-09T15:14:16.380Z,2.30
2023-05-09T15:16:43.007Z,2.63
2023-05-09T15:19:09.886Z,2.75
2023-05-09T15:21:36.453Z,2.38
2023-05-09T15:24:03.474Z,2.45
2023-05-09T15:26:30.173Z,2.58
2023-05-09T15:28:56.570Z,3.10
2023-05-09T15:31:24.082Z,2.47
2023-05-09T15:33:50.864Z,2.58
2023-05-09T15:36:17.388Z,2.63
2023-05-09T15:38:46.194Z,2.67
2023-05-09T15:43:39.369Z,2.13
2023-05-09T15:46:05.916Z,2.40
2023-05-09T15:48:32.393Z,2.42
2023-05-09T15:50:58.979Z,2.60
2023-05-09T15:53:27.537Z,2.63
2023-05-09T15:55:53.970Z,2.28
2023-05-09T15:58:20.435Z,2.35
2023-05-09T16:00:46.869Z,2.35
2023-05-09T16:03:13.677Z,2.17
2023-05-09T16:05:41.060Z,2.60
2023-05-09T16:08:07.679Z,2.33
2023-05-09T16:10:34.167Z,2.10
2023-05-09T16:13:00.661Z,1.63
2023-05-09T16:15:27.523Z,2.00
2023-05-09T16:18:01.068Z,1.40
2023-05-09T16:20:34.234Z,1.20
2023-05-09T16:23:00.638Z,1.35
2023-05-09T16:25:27.313Z,1.08
2023-05-09T16:27:53.803Z,0.90
2023-05-09T16:30:20.298Z,1.25
2023-05-09T16:32:46.851Z,1.00
2023-05-09T16:35:13.355Z,1.27
2023-05-09T16:37:39.884Z,1.23
2023-05-09T16:40:06.790Z,1.33
2023-05-09T16:42:33.493Z,1.73
2023-05-09T16:45:00.023Z,1.70
2023-05-09T16:47:26.524Z,1.35
2023-05-09T16:49:52.932Z,1.80
2023-05-09T16:52:19.307Z,2.08
2023-05-09T16:54:45.801Z,2.03
2023-05-09T16:57:13.162Z,1.70
2023-05-09T16:59:39.712Z,2.17
2023-05-09T17:02:07.175Z,2.25
2023-05-09T17:04:35.900Z,2.70
2023-05-09T17:07:04.016Z,2.20
2023-05-09T17:09:31.821Z,2.15
2023-05-09T17:11:59.000Z,2.30
2023-05-09T17:14:32.751Z,2.22
2023-05-09T17:16:59.284Z,1.88
2023-05-09T17:19:26.197Z,2.40
2023-05-09T17:21:53.400Z,2.70
2023-05-09T17:24:19.783Z,2.45
2023-05-09T17:26:46.772Z,2.95
2023-05-09T17:29:13.350Z,2.40
2023-05-09T17:31:39.740Z,2.60
2023-05-09T17:34:06.237Z,2.35
2023-05-09T17:36:33.634Z,2.80
2023-05-09T17:39:00.730Z,2.42
2023-05-09T17:41:27.219Z,2.90
2023-05-09T17:43:56.385Z,3.13
2023-05-09T17:46:23.622Z,2.70
2023-05-09T17:48:50.533Z,2.40
2023-05-09T17:51:17.485Z,2.45
2023-05-09T17:53:43.901Z,3.03
2023-05-09T17:56:10.411Z,3.05
2023-05-09T17:58:36.913Z,2.58
2023-05-09T18:01:03.496Z,3.28
2023-05-09T18:03:32.253Z,3.15
2023-05-09T18:06:00.238Z,3.05
2023-05-09T18:08:26.914Z,3.55
2023-05-09T18:10:56.209Z,3.42
2023-05-09T18:13:23.154Z,3.28
2023-05-09T18:15:49.814Z,2.97
2023-05-09T18:18:16.371Z,2.92
2023-05-09T18:20:43.082Z,2.83
2023-05-09T18:23:10.381Z,3.05
2023-05-09T18:25:38.538Z,2.80
2023-05-09T18:28:05.421Z,3.45
2023-05-09T18:30:32.018Z,3.40
2023-05-09T18:33:00.361Z,2.85
2023-05-09T18:35:27.011Z,3.03
2023-05-09T18:37:53.883Z,2.88
2023-05-09T18:40:20.321Z,2.30
2023-05-09T18:42:47.257Z,2.70
2023-05-09T18:45:13.940Z,2.10
2023-05-09T18:47:41.566Z,2.55
2023-05-09T18:50:08.449Z,2.35
2023-05-09T18:52:34.956Z,2.13
2023-05-09T18:55:01.448Z,2.28
2023-05-09T18:57:28.347Z,2.30
2023-05-09T18:59:55.035Z,2.30
2023-05-09T19:02:22.339Z,2.50
2023-05-09T19:04:50.410Z,2.22
2023-05-09T19:07:17.060Z,3.00
2023-05-09T19:09:43.687Z,2.75
2023-05-09T19:12:10.205Z,2.90
2023-05-09T19:14:37.899Z,2.38
2023-05-09T19:17:05.512Z,3.00
2023-05-09T19:19:32.335Z,2.95
2023-05-09T19:21:59.024Z,3.45
2023-05-09T19:24:25.520Z,3.15
2023-05-09T19:26:52.030Z,2.55
2023-05-09T19:29:18.515Z,3.10
2023-05-09T19:31:44.882Z,3.10
2023-05-09T19:34:11.305Z,3.08
2023-05-09T19:36:37.792Z,2.90
2023-05-09T19:39:05.558Z,3.30
2023-05-09T19:41:32.156Z,3.10
2023-05-09T19:43:59.356Z,2.50
2023-05-09T19:46:26.274Z,2.97
2023-05-09T19:48:52.842Z,2.58
2023-05-09T19:51:19.270Z,2.83
2023-05-09T19:53:46.870Z,2.53
2023-05-09T19:56:13.802Z,2.70
2023-05-09T19:58:40.347Z,2.42
2023-05-09T20:01:07.222Z,2.65
2023-05-09T20:03:36.748Z,2.28
2023-05-09T20:06:03.702Z,2.40
2023-05-09T20:08:31.128Z,2.25
2023-05-09T20:10:57.602Z,2.17
2023-05-09T20:13:24.402Z,2.67
2023-05-09T20:15:51.014Z,2.03
2023-05-09T20:18:17.609Z,2.13
2023-05-09T20:20:44.123Z,2.35
2023-05-09T20:23:10.725Z,2.15
2023-05-09T20:25:37.184Z,2.20
2023-05-09T20:28:03.810Z,2.40
2023-05-09T20:30:30.381Z,2.05
2023-05-09T20:32:58.529Z,2.22
2023-05-09T20:35:25.455Z,2.10
2023-05-09T20:37:52.159Z,2.55
2023-05-09T20:40:18.924Z,2.50
2023-05-09T20:42:45.424Z,2.42
2023-05-09T20:45:12.086Z,2.42
2023-05-09T20:47:39.783Z,2.22
2023-05-09T20:50:07.088Z,2.33
2023-05-09T20:52:33.562Z,2.30
2023-05-09T20:55:00.162Z,2.38
2023-05-09T20:57:26.693Z,2.70
2023-05-09T20:59:53.144Z,2.05
2023-05-09T21:02:19.749Z,2.50
2023-05-09T21:04:46.221Z,2.33
2023-05-09T21:07:12.683Z,2.33
2023-05-09T21:09:39.216Z,2.40
2023-05-09T21:12:05.953Z,2.33
2023-05-09T21:14:32.434Z,2.20
2023-05-09T21:16:59.065Z,2.60
2023-05-09T21:19:25.874Z,2.33
2023-05-09T21:21:52.307Z,2.38
2023-05-09T21:24:18.753Z,2.35
2023-05-09T21:26:45.227Z,3.25
2023-05-09T21:29:11.776Z,3.47
2023-05-09T21:31:40.474Z,3.20
2023-05-09T21:34:10.307Z,2.75
2023-05-09T21:36:40.527Z,2.70
2023-05-09T21:39:10.805Z,3.05
2023-05-09T21:41:38.793Z,3.50
2023-05-09T21:44:07.771Z,3.15
2023-05-09T21:49:02.005Z,3.08
2023-05-09T21:51:29.282Z,3.78
2023-05-09T21:53:56.035Z,3.33
2023-05-09T21:56:23.126Z,3.85
2023-05-09T21:58:49.604Z,3.70
2023-05-09T22:01:17.085Z,3.13
2023-05-09T22:03:43.751Z,3.63
2023-05-09T22:06:11.502Z,3.40
2023-05-09T22:08:37.932Z,3.22
2023-05-09T22:11:04.654Z,3.80
2023-05-09T22:13:31.141Z,4.25
2023-05-09T22:15:57.614Z,4.40
2023-05-09T22:18:24.111Z,4.43
2023-05-09T22:20:50.594Z,4.57
2023-05-09T22:23:17.059Z,3.42
2023-05-09T22:25:43.669Z,3.08
2023-05-09T22:28:10.248Z,3.28
2023-05-09T22:30:37.292Z,4.57
2023-05-09T22:33:03.935Z,5.88
2023-05-09T22:35:30.404Z,4.60
2023-05-09T22:37:56.859Z,4.18
2023-05-09T22:40:23.312Z,5.05
2023-05-09T22:42:49.734Z,3.50
2023-05-09T22:45:16.202Z,4.95
2023-05-09T22:47:42.734Z,5.65
2023-05-09T22:50:10.164Z,5.07
2023-05-09T22:52:36.693Z,5.30
2023-05-09T22:55:03.523Z,6.35
2023-05-09T22:57:31.123Z,5.25
2023-05-09T22:59:57.562Z,5.45
2023-05-09T23:02:24.125Z,4.90
2023-05-09T23:04:50.813Z,5.25
2023-05-09T23:07:17.646Z,5.80
2023-05-09T23:09:44.218Z,5.00
2023-05-09T23:12:10.855Z,5.03
2023-05-09T23:14:37.366Z,4.70
2023-05-09T23:17:04.002Z,6.22
2023-05-09T23:19:30.477Z,5.20
2023-05-09T23:21:58.970Z,6.22
2023-05-09T23:24:25.626Z,4.75
2023-05-09T23:26:53.413Z,5.20
2023-05-09T23:29:20.085Z,6.30
2023-05-09T23:31:47.052Z,5.35
2023-05-09T23:34:13.676Z,5.20
2023-05-09T23:36:40.303Z,4.60
2023-05-09T23:39:06.830Z,5.40
2023-05-09T23:41:33.359Z,5.40
2023-05-09T23:43:59.792Z,5.95
2023-05-09T23:46:27.214Z,5.15
2023-05-09T23:48:53.654Z,5.05
2023-05-09T23:51:21.537Z,5.22
2023-05-09T23:53:48.837Z,5.10
2023-05-09T23:56:15.440Z,6.90
2023-05-09T23:59:42.631Z,5.82
